sensor_id;sensor_type;location;lat;lon;timestamp;pressure;altitude;pressure_sealevel;temperature;humidity
141;BME280;65;48.778;9.160;2023-04-01T00:02:11;97192.53;;;8.62;99.68
141;BME280;65;48.778;9.160;2023-04-01T00:04:57;97194.25;;;8.50;100.00
141;BME280;65;48.778;9.160;2023-04-01T00:07:42;97199.94;;;8.57;100.00
141;BME280;65;48.778;9.160;2023-04-01T00:10:28;97196.66;;;8.53;100.00
141;BME280;65;48.778;9.160;2023-04-01T00:13:14;97193.09;;;8.54;100.00
141;BME280;65;48.778;9.160;2023-04-01T00:16:00;97201.50;;;8.60;100.00
141;BME280;65;48.778;9.160;2023-04-01T00:18:47;97198.25;;;8.56;100.00
141;BME280;65;48.778;9.160;2023-04-01T00:21:33;97194.34;;;8.62;100.00
141;BME280;65;48.778;9.160;2023-04-01T00:24:19;97189.28;;;8.59;100.00
141;BME280;65;48.778;9.160;2023-04-01T00:27:05;97188.22;;;8.61;100.00
141;BME280;65;48.778;9.160;2023-04-01T00:29:51;97196.75;;;8.65;100.00
141;BME280;65;48.778;9.160;2023-04-01T00:32:37;97200.31;;;8.76;98.80
141;BME280;65;48.778;9.160;2023-04-01T00:35:22;97195.91;;;8.64;100.00
141;BME280;65;48.778;9.160;2023-04-01T00:38:08;97199.09;;;8.56;100.00
141;BME280;65;48.778;9.160;2023-04-01T00:40:57;97200.88;;;8.56;100.00
141;BME280;65;48.778;9.160;2023-04-01T00:43:46;97205.72;;;8.62;100.00
141;BME280;65;48.778;9.160;2023-04-01T00:46:32;97208.78;;;8.69;99.49
141;BME280;65;48.778;9.160;2023-04-01T00:49:19;97209.06;;;8.77;100.00
141;BME280;65;48.778;9.160;2023-04-01T00:52:08;97200.75;;;8.70;100.00
141;BME280;65;48.778;9.160;2023-04-01T00:55:12;97212.03;;;8.60;100.00
141;BME280;65;48.778;9.160;2023-04-01T00:58:03;97208.78;;;8.56;100.00
141;BME280;65;48.778;9.160;2023-04-01T01:00:51;97212.03;;;8.60;100.00
141;BME280;65;48.778;9.160;2023-04-01T01:03:37;97211.94;;;8.61;100.00
141;BME280;65;48.778;9.160;2023-04-01T01:15:47;97204.38;;;8.44;100.00
141;BME280;65;48.778;9.160;2023-04-01T01:18:44;97204.16;;;8.47;100.00
141;BME280;65;48.778;9.160;2023-04-01T01:24:48;97201.72;;;8.56;100.00
141;BME280;65;48.778;9.160;2023-04-01T01:27:51;97196.97;;;8.62;100.00
141;BME280;65;48.778;9.160;2023-04-01T01:37:15;97207.16;;;8.66;100.00
141;BME280;65;48.778;9.160;2023-04-01T01:40:05;97204.53;;;8.66;100.00
141;BME280;65;48.778;9.160;2023-04-01T01:42:55;97206.16;;;8.56;100.00
141;BME280;65;48.778;9.160;2023-04-01T01:45:46;97208.03;;;8.54;100.00
141;BME280;65;48.778;9.160;2023-04-01T01:48:34;97214.78;;;8.58;100.00
141;BME280;65;48.778;9.160;2023-04-01T01:51:21;97201.41;;;8.48;100.00
141;BME280;65;48.778;9.160;2023-04-01T01:54:16;97209.97;;;8.39;100.00
141;BME280;65;48.778;9.160;2023-04-01T01:57:07;97203.13;;;8.24;100.00
141;BME280;65;48.778;9.160;2023-04-01T01:59:58;97205.44;;;8.16;100.00
141;BME280;65;48.778;9.160;2023-04-01T02:02:47;97196.72;;;8.15;100.00
141;BME280;65;48.778;9.160;2023-04-01T02:05:34;97193.03;;;8.18;100.00
141;BME280;65;48.778;9.160;2023-04-01T02:08:25;97185.53;;;8.24;100.00
141;BME280;65;48.778;9.160;2023-04-01T02:11:13;97188.28;;;8.23;100.00
141;BME280;65;48.778;9.160;2023-04-01T02:14:05;97194.06;;;8.28;100.00
141;BME280;65;48.778;9.160;2023-04-01T02:16:58;97193.53;;;8.23;100.00
141;BME280;65;48.778;9.160;2023-04-01T02:20:07;97199.84;;;8.20;100.00
141;BME280;65;48.778;9.160;2023-04-01T02:22:56;97213.03;;;8.33;100.00
141;BME280;65;48.778;9.160;2023-04-01T02:25:45;97207.00;;;8.31;100.00
141;BME280;65;48.778;9.160;2023-04-01T02:28:33;97203.63;;;8.29;100.00
141;BME280;65;48.778;9.160;2023-04-01T02:31:22;97204.69;;;8.27;100.00
141;BME280;65;48.778;9.160;2023-04-01T02:34:08;97207.22;;;8.28;100.00
141;BME280;65;48.778;9.160;2023-04-01T02:36:55;97207.00;;;8.31;100.00
141;BME280;65;48.778;9.160;2023-04-01T02:39:41;97197.84;;;8.24;100.00
141;BME280;65;48.778;9.160;2023-04-01T02:42:28;97194.69;;;8.19;100.00
141;BME280;65;48.778;9.160;2023-04-01T02:45:14;97191.94;;;8.08;100.00
141;BME280;65;48.778;9.160;2023-04-01T02:48:00;97198.56;;;8.01;100.00
141;BME280;65;48.778;9.160;2023-04-01T02:50:46;97195.34;;;8.10;100.00
141;BME280;65;48.778;9.160;2023-04-01T02:53:32;97194.59;;;8.20;100.00
141;BME280;65;48.778;9.160;2023-04-01T02:56:17;97200.19;;;8.16;100.00
141;BME280;65;48.778;9.160;2023-04-01T02:59:05;97197.75;;;8.13;100.00
141;BME280;65;48.778;9.160;2023-04-01T03:01:50;97196.16;;;8.23;100.00
141;BME280;65;48.778;9.160;2023-04-01T03:04:45;97196.59;;;8.17;100.00
141;BME280;65;48.778;9.160;2023-04-01T03:07:31;97196.91;;;8.12;100.00
141;BME280;65;48.778;9.160;2023-04-01T03:10:17;97202.59;;;8.19;100.00
141;BME280;65;48.778;9.160;2023-04-01T03:13:03;97201.53;;;8.09;100.00
141;BME280;65;48.778;9.160;2023-04-01T03:15:48;97204.25;;;8.07;100.00
141;BME280;65;48.778;9.160;2023-04-01T03:18:34;97193.63;;;8.09;100.00
141;BME280;65;48.778;9.160;2023-04-01T03:21:22;97197.00;;;7.98;100.00
141;BME280;65;48.778;9.160;2023-04-01T03:24:08;97191.22;;;7.93;100.00
141;BME280;65;48.778;9.160;2023-04-01T03:26:54;97199.41;;;7.88;100.00
141;BME280;65;48.778;9.160;2023-04-01T03:29:39;97209.09;;;8.01;100.00
141;BME280;65;48.778;9.160;2023-04-01T03:32:25;97202.78;;;7.90;100.00
141;BME280;65;48.778;9.160;2023-04-01T03:35:12;97203.09;;;7.99;100.00
141;BME280;65;48.778;9.160;2023-04-01T03:37:58;97205.53;;;8.02;100.00
141;BME280;65;48.778;9.160;2023-04-01T03:40:44;97203.53;;;8.05;100.00
141;BME280;65;48.778;9.160;2023-04-01T03:43:30;97200.78;;;8.07;100.00
141;BME280;65;48.778;9.160;2023-04-01T03:46:17;97203.41;;;8.07;100.00
141;BME280;65;48.778;9.160;2023-04-01T03:49:07;97209.22;;;8.12;100.00
141;BME280;65;48.778;9.160;2023-04-01T03:51:56;97205.66;;;8.13;100.00
141;BME280;65;48.778;9.160;2023-04-01T03:54:42;97202.19;;;8.12;100.00
141;BME280;65;48.778;9.160;2023-04-01T03:57:28;97189.97;;;8.11;100.00
141;BME280;65;48.778;9.160;2023-04-01T04:00:13;97192.38;;;8.14;99.44
141;BME280;65;48.778;9.160;2023-04-01T04:02:59;97193.31;;;8.01;100.00
141;BME280;65;48.778;9.160;2023-04-01T04:05:47;97190.69;;;8.01;100.00
141;BME280;65;48.778;9.160;2023-04-01T04:08:33;97176.59;;;7.89;100.00
141;BME280;65;48.778;9.160;2023-04-01T04:11:20;97191.22;;;7.80;100.00
141;BME280;65;48.778;9.160;2023-04-01T04:14:06;97179.53;;;7.84;100.00
141;BME280;65;48.778;9.160;2023-04-01T04:16:51;97182.47;;;7.92;100.00
141;BME280;65;48.778;9.160;2023-04-01T04:19:37;97183.31;;;7.93;100.00
141;BME280;65;48.778;9.160;2023-04-01T04:22:23;97184.16;;;7.93;100.00
141;BME280;65;48.778;9.160;2023-04-01T04:25:09;97183.31;;;7.93;100.00
141;BME280;65;48.778;9.160;2023-04-01T04:27:55;97172.81;;;7.93;99.88
141;BME280;65;48.778;9.160;2023-04-01T04:30:40;97171.13;;;7.79;100.00
141;BME280;65;48.778;9.160;2023-04-01T04:33:26;97186.16;;;7.65;100.00
141;BME280;65;48.778;9.160;2023-04-01T04:36:12;97184.47;;;7.64;100.00
141;BME280;65;48.778;9.160;2023-04-01T04:38:58;97183.63;;;7.63;100.00
141;BME280;65;48.778;9.160;2023-04-01T04:41:47;97183.00;;;7.59;100.00
141;BME280;65;48.778;9.160;2023-04-01T04:44:32;97179.00;;;7.67;100.00
141;BME280;65;48.778;9.160;2023-04-01T04:47:18;97190.78;;;7.61;100.00
141;BME280;65;48.778;9.160;2023-04-01T04:50:04;97179.63;;;7.57;100.00
141;BME280;65;48.778;9.160;2023-04-01T04:52:50;97179.41;;;7.60;100.00
141;BME280;65;48.778;9.160;2023-04-01T04:55:36;97182.16;;;7.59;100.00
141;BME280;65;48.778;9.160;2023-04-01T04:58:22;97185.09;;;7.54;100.00
141;BME280;65;48.778;9.160;2023-04-01T05:01:10;97172.78;;;7.55;100.00
141;BME280;65;48.778;9.160;2023-04-01T05:03:56;97169.84;;;7.59;100.00
141;BME280;65;48.778;9.160;2023-04-01T05:06:43;97177.84;;;7.58;100.00
141;BME280;65;48.778;9.160;2023-04-01T05:09:30;97164.91;;;7.55;100.00
141;BME280;65;48.778;9.160;2023-04-01T05:12:16;97168.66;;;7.51;100.00
141;BME280;65;48.778;9.160;2023-04-01T05:15:05;97156.06;;;7.56;100.00
141;BME280;65;48.778;9.160;2023-04-01T05:17:51;97174.78;;;7.64;100.00
141;BME280;65;48.778;9.160;2023-04-01T05:20:37;97160.50;;;7.68;100.00
141;BME280;65;48.778;9.160;2023-04-01T05:23:23;97152.28;;;7.73;100.00
141;BME280;65;48.778;9.160;2023-04-01T05:26:11;97153.03;;;7.75;100.00
141;BME280;65;48.778;9.160;2023-04-01T05:28:57;97142.19;;;7.79;100.00
141;BME280;65;48.778;9.160;2023-04-01T05:31:43;97151.66;;;7.82;100.00
141;BME280;65;48.778;9.160;2023-04-01T05:34:29;97145.03;;;7.89;100.00
141;BME280;65;48.778;9.160;2023-04-01T05:37:14;97146.91;;;8.00;100.00
141;BME280;65;48.778;9.160;2023-04-01T05:40:01;97145.34;;;8.10;100.00
141;BME280;65;48.778;9.160;2023-04-01T05:42:46;97141.63;;;8.25;100.00
141;BME280;65;48.778;9.160;2023-04-01T05:45:32;97146.16;;;8.36;99.18
141;BME280;65;48.778;9.160;2023-04-01T05:48:18;97142.16;;;8.43;98.63
141;BME280;65;48.778;9.160;2023-04-01T05:51:04;97138.13;;;8.50;95.65
141;BME280;65;48.778;9.160;2023-04-01T05:53:50;97143.66;;;8.58;96.54
141;BME280;65;48.778;9.160;2023-04-01T05:56:36;97145.97;;;8.63;95.58
141;BME280;65;48.778;9.160;2023-04-01T05:59:21;97143.81;;;8.80;94.17
141;BME280;65;48.778;9.160;2023-04-01T06:02:09;97139.91;;;8.86;92.51
141;BME280;65;48.778;9.160;2023-04-01T06:05:18;97136.72;;;8.94;92.78
141;BME280;65;48.778;9.160;2023-04-01T06:08:10;97132.28;;;8.94;93.29
141;BME280;65;48.778;9.160;2023-04-01T06:14:15;97119.53;;;9.12;90.59
141;BME280;65;48.778;9.160;2023-04-01T06:17:24;97113.13;;;9.27;88.74
141;BME280;65;48.778;9.160;2023-04-01T06:23:49;97115.94;;;9.48;86.77
141;BME280;65;48.778;9.160;2023-04-01T06:56:50;97123.91;;;9.81;84.71
141;BME280;65;48.778;9.160;2023-04-01T06:59:41;97125.38;;;9.97;85.62
141;BME280;65;48.778;9.160;2023-04-01T07:02:41;97127.78;;;10.11;84.47
141;BME280;65;48.778;9.160;2023-04-01T07:05:31;97124.78;;;10.15;84.91
141;BME280;65;48.778;9.160;2023-04-01T07:08:24;97140.72;;;10.03;84.79
141;BME280;65;48.778;9.160;2023-04-01T07:11:22;97133.06;;;10.11;85.00
141;BME280;65;48.778;9.160;2023-04-01T07:14:29;97137.00;;;10.05;84.15
141;BME280;65;48.778;9.160;2023-04-01T07:17:22;97139.91;;;10.13;85.13
141;BME280;65;48.778;9.160;2023-04-01T07:20:28;97136.78;;;10.08;84.43
141;BME280;65;48.778;9.160;2023-04-01T07:23:40;97152.47;;;9.88;88.26
141;BME280;65;48.778;9.160;2023-04-01T07:26:27;97151.00;;;9.72;86.97
141;BME280;65;48.778;9.160;2023-04-01T07:29:14;97143.44;;;9.68;87.54
141;BME280;65;48.778;9.160;2023-04-01T07:36:18;97155.31;;;9.73;87.72
141;BME280;65;48.778;9.160;2023-04-01T07:39:14;97154.22;;;9.65;89.06
141;BME280;65;48.778;9.160;2023-04-01T07:46:07;97151.72;;;9.74;87.39
141;BME280;65;48.778;9.160;2023-04-01T07:54:58;97154.41;;;10.08;86.64
141;BME280;65;48.778;9.160;2023-04-01T07:58:02;97161.16;;;10.23;85.10
141;BME280;65;48.778;9.160;2023-04-01T08:01:00;97155.06;;;10.45;83.53
141;BME280;65;48.778;9.160;2023-04-01T08:04:14;97149.63;;;10.58;83.54
141;BME280;65;48.778;9.160;2023-04-01T08:07:10;97153.34;;;10.66;83.67
141;BME280;65;48.778;9.160;2023-04-01T08:10:08;97161.88;;;10.59;84.19
141;BME280;65;48.778;9.160;2023-04-01T08:17:01;97154.09;;;10.24;86.92
141;BME280;65;48.778;9.160;2023-04-01T08:22:45;97157.56;;;10.47;85.97
141;BME280;65;48.778;9.160;2023-04-01T08:25:38;97160.72;;;10.40;85.36
141;BME280;65;48.778;9.160;2023-04-01T08:28:43;97155.66;;;10.49;87.44
141;BME280;65;48.778;9.160;2023-04-01T08:31:55;97165.94;;;10.74;87.19
141;BME280;65;48.778;9.160;2023-04-01T08:34:47;97155.22;;;10.87;86.94
141;BME280;65;48.778;9.160;2023-04-01T08:37:39;97160.91;;;10.71;85.99
141;BME280;65;48.778;9.160;2023-04-01T08:40:41;97177.03;;;10.45;89.21
141;BME280;65;48.778;9.160;2023-04-01T09:31:23;97177.69;;;10.81;90.92
141;BME280;65;48.778;9.160;2023-04-01T09:38:04;97184.06;;;11.54;86.90
141;BME280;65;48.778;9.160;2023-04-01T09:41:02;97190.09;;;10.69;90.36
141;BME280;65;48.778;9.160;2023-04-01T09:44:18;97178.22;;;10.53;92.52
141;BME280;65;48.778;9.160;2023-04-01T09:50:27;97188.66;;;10.21;93.72
141;BME280;65;48.778;9.160;2023-04-01T10:15:49;97203.41;;;10.79;82.59
141;BME280;65;48.778;9.160;2023-04-01T10:38:23;97192.34;;;12.44;71.70
141;BME280;65;48.778;9.160;2023-04-01T10:44:22;97187.81;;;12.04;73.68
141;BME280;65;48.778;9.160;2023-04-01T11:09:39;97203.94;;;11.48;75.54
141;BME280;65;48.778;9.160;2023-04-01T11:24:34;97218.47;;;12.88;69.17
141;BME280;65;48.778;9.160;2023-04-01T11:30:33;97205.72;;;14.19;63.80
141;BME280;65;48.778;9.160;2023-04-01T11:33:35;97211.28;;;14.45;63.22
141;BME280;65;48.778;9.160;2023-04-01T11:36:41;97210.50;;;13.86;60.78
141;BME280;65;48.778;9.160;2023-04-01T11:42:51;97218.50;;;13.77;62.71
141;BME280;65;48.778;9.160;2023-04-01T11:58:41;97217.66;;;12.57;68.32
141;BME280;65;48.778;9.160;2023-04-01T12:10:57;97233.69;;;12.25;73.14
141;BME280;65;48.778;9.160;2023-04-01T12:45:23;97245.31;;;13.35;70.13
141;BME280;65;48.778;9.160;2023-04-01T12:51:38;97245.88;;;13.87;64.11
141;BME280;65;48.778;9.160;2023-04-01T13:07:26;97263.91;;;13.14;64.52
141;BME280;65;48.778;9.160;2023-04-01T13:16:42;97263.13;;;12.32;69.14
141;BME280;65;48.778;9.160;2023-04-01T13:28:28;97265.66;;;12.33;70.13
141;BME280;65;48.778;9.160;2023-04-01T13:40:39;97285.38;;;12.71;66.67
141;BME280;65;48.778;9.160;2023-04-01T13:43:43;97278.69;;;12.46;67.83
141;BME280;65;48.778;9.160;2023-04-01T13:53:33;97287.75;;;12.44;69.24
141;BME280;65;48.778;9.160;2023-04-01T14:14:57;97304.03;;;12.18;69.99
141;BME280;65;48.778;9.160;2023-04-01T14:36:47;97319.28;;;11.51;78.84
141;BME280;65;48.778;9.160;2023-04-01T14:45:54;97314.00;;;11.39;80.73
141;BME280;65;48.778;9.160;2023-04-01T14:48:59;97315.47;;;11.32;80.22
141;BME280;65;48.778;9.160;2023-04-01T14:51:48;97322.50;;;11.54;77.63
141;BME280;65;48.778;9.160;2023-04-01T14:54:36;97311.22;;;11.52;77.42
141;BME280;65;48.778;9.160;2023-04-01T14:57:28;97311.94;;;11.54;77.05
141;BME280;65;48.778;9.160;2023-04-01T15:00:17;97317.00;;;11.57;75.48
141;BME280;65;48.778;9.160;2023-04-01T15:03:15;97327.56;;;11.68;75.14
141;BME280;65;48.778;9.160;2023-04-01T15:12:13;97329.28;;;11.47;76.07
141;BME280;65;48.778;9.160;2023-04-01T15:18:07;97326.38;;;11.61;75.16
141;BME280;65;48.778;9.160;2023-04-01T15:27:34;97333.09;;;11.65;75.06
141;BME280;65;48.778;9.160;2023-04-01T15:30:32;97325.03;;;11.67;74.94
141;BME280;65;48.778;9.160;2023-04-01T15:33:22;97336.56;;;11.77;74.58
141;BME280;65;48.778;9.160;2023-04-01T15:36:20;97344.59;;;11.87;72.86
141;BME280;65;48.778;9.160;2023-04-01T15:39:22;97348.84;;;11.78;73.62
141;BME280;65;48.778;9.160;2023-04-01T15:45:11;97350.66;;;11.66;75.07
141;BME280;65;48.778;9.160;2023-04-01T15:48:20;97360.66;;;11.40;77.66
141;BME280;65;48.778;9.160;2023-04-01T15:55:00;97361.16;;;11.46;75.86
141;BME280;65;48.778;9.160;2023-04-01T16:04:31;97370.31;;;11.30;77.51
141;BME280;65;48.778;9.160;2023-04-01T16:10:17;97383.41;;;11.32;75.08
141;BME280;65;48.778;9.160;2023-04-01T16:17:01;97371.16;;;11.31;74.83
141;BME280;65;48.778;9.160;2023-04-01T16:19:56;97373.78;;;11.31;73.86
141;BME280;65;48.778;9.160;2023-04-01T16:25:56;97382.78;;;10.84;77.43
141;BME280;65;48.778;9.160;2023-04-01T16:28:54;97374.25;;;10.91;74.97
141;BME280;65;48.778;9.160;2023-04-01T16:38:20;97386.25;;;10.73;77.89
141;BME280;65;48.778;9.160;2023-04-01T16:41:30;97383.84;;;10.70;79.40
141;BME280;65;48.778;9.160;2023-04-01T16:44:23;97392.88;;;10.78;78.29
141;BME280;65;48.778;9.160;2023-04-01T16:47:12;97385.91;;;10.89;78.48
141;BME280;65;48.778;9.160;2023-04-01T16:50:19;97396.63;;;10.98;76.33
141;BME280;65;48.778;9.160;2023-04-01T17:02:37;97402.00;;;10.74;81.69
141;BME280;65;48.778;9.160;2023-04-01T17:11:22;97395.53;;;10.90;79.24
141;BME280;65;48.778;9.160;2023-04-01T17:17:25;97398.16;;;10.78;80.20
141;BME280;65;48.778;9.160;2023-04-01T17:20:35;97401.63;;;10.79;80.14
141;BME280;65;48.778;9.160;2023-04-01T17:41:19;97432.31;;;10.47;82.48
141;BME280;65;48.778;9.160;2023-04-01T17:47:41;97439.50;;;10.44;82.59
141;BME280;65;48.778;9.160;2023-04-01T17:57:10;97451.41;;;10.26;87.87
141;BME280;65;48.778;9.160;2023-04-01T18:03:04;97474.19;;;10.03;91.34
141;BME280;65;48.778;9.160;2023-04-01T18:14:47;97501.84;;;9.36;100.00
141;BME280;65;48.778;9.160;2023-04-01T18:24:35;97498.97;;;9.01;100.00
141;BME280;65;48.778;9.160;2023-04-01T18:27:24;97505.31;;;8.98;100.00
141;BME280;65;48.778;9.160;2023-04-01T18:30:26;97494.97;;;8.82;100.00
141;BME280;65;48.778;9.160;2023-04-01T18:33:24;97501.19;;;8.94;100.00
141;BME280;65;48.778;9.160;2023-04-01T18:36:38;97502.34;;;8.90;100.00
141;BME280;65;48.778;9.160;2023-04-01T18:39:42;97511.63;;;8.96;100.00
141;BME280;65;48.778;9.160;2023-04-01T18:45:33;97519.94;;;8.90;100.00
141;BME280;65;48.778;9.160;2023-04-01T18:51:21;97524.19;;;8.65;100.00
141;BME280;65;48.778;9.160;2023-04-01T18:54:16;97527.84;;;8.50;100.00
141;BME280;65;48.778;9.160;2023-04-01T18:57:12;97540.56;;;8.43;100.00
141;BME280;65;48.778;9.160;2023-04-01T19:00:52;97537.28;;;8.40;100.00
141;BME280;65;48.778;9.160;2023-04-01T19:03:23;97542.94;;;8.34;100.00
141;BME280;65;48.778;9.160;2023-04-01T19:06:29;97546.03;;;8.26;100.00
141;BME280;65;48.778;9.160;2023-04-01T19:15:27;97549.59;;;7.84;100.00
141;BME280;65;48.778;9.160;2023-04-01T19:27:31;97548.00;;;7.81;100.00
141;BME280;65;48.778;9.160;2023-04-01T19:30:39;97547.63;;;7.73;100.00
141;BME280;65;48.778;9.160;2023-04-01T19:36:50;97541.34;;;7.76;100.00
141;BME280;65;48.778;9.160;2023-04-01T19:45:40;97541.69;;;7.84;100.00
141;BME280;65;48.778;9.160;2023-04-01T19:51:31;97552.94;;;8.00;100.00
141;BME280;65;48.778;9.160;2023-04-01T19:57:57;97568.19;;;7.95;100.00
141;BME280;65;48.778;9.160;2023-04-01T20:00:59;97577.56;;;7.99;100.00
141;BME280;65;48.778;9.160;2023-04-01T20:03:51;97581.41;;;8.08;100.00
141;BME280;65;48.778;9.160;2023-04-01T20:06:55;97572.31;;;8.13;100.00
141;BME280;65;48.778;9.160;2023-04-01T20:15:36;97576.09;;;8.50;99.06
141;BME280;65;48.778;9.160;2023-04-01T20:18:27;97579.66;;;8.49;99.09
141;BME280;65;48.778;9.160;2023-04-01T20:24:37;97592.09;;;8.47;100.00
141;BME280;65;48.778;9.160;2023-04-01T20:27:35;97589.81;;;8.55;98.51
141;BME280;65;48.778;9.160;2023-04-01T20:37:12;97601.44;;;8.66;97.50
141;BME280;65;48.778;9.160;2023-04-01T20:50:01;97615.88;;;8.87;95.06
141;BME280;65;48.778;9.160;2023-04-01T20:53:00;97620.09;;;8.90;95.41
141;BME280;65;48.778;9.160;2023-04-01T20:56:01;97622.28;;;8.83;95.83
141;BME280;65;48.778;9.160;2023-04-01T21:15:21;97623.78;;;8.87;97.15
141;BME280;65;48.778;9.160;2023-04-01T21:18:29;97627.44;;;8.84;96.88
141;BME280;65;48.778;9.160;2023-04-01T21:24:59;97617.75;;;8.85;96.97
141;BME280;65;48.778;9.160;2023-04-01T21:43:21;97643.56;;;8.66;98.86
141;BME280;65;48.778;9.160;2023-04-01T22:05:58;97671.94;;;8.48;97.04
141;BME280;65;48.778;9.160;2023-04-01T22:08:55;97665.16;;;8.44;97.77
141;BME280;65;48.778;9.160;2023-04-01T22:27:18;97676.16;;;8.22;97.64
141;BME280;65;48.778;9.160;2023-04-01T22:30:11;97679.00;;;8.33;96.65
141;BME280;65;48.778;9.160;2023-04-01T22:33:28;97679.56;;;8.24;97.49
141;BME280;65;48.778;9.160;2023-04-01T22:46:02;97684.63;;;8.55;94.26
141;BME280;65;48.778;9.160;2023-04-01T22:52:04;97687.16;;;8.57;93.95
141;BME280;65;48.778;9.160;2023-04-01T22:54:54;97685.00;;;8.49;93.91
141;BME280;65;48.778;9.160;2023-04-01T23:00:52;97694.94;;;8.73;92.34
141;BME280;65;48.778;9.160;2023-04-01T23:03:41;97693.72;;;8.64;93.17
141;BME280;65;48.778;9.160;2023-04-01T23:06:34;97694.00;;;8.60;93.28
141;BME280;65;48.778;9.160;2023-04-01T23:09:23;97703.44;;;8.49;93.85
141;BME280;65;48.778;9.160;2023-04-01T23:12:13;97696.66;;;8.60;93.15
141;BME280;65;48.778;9.160;2023-04-01T23:15:02;97697.03;;;8.53;94.23
141;BME280;65;48.778;9.160;2023-04-01T23:21:06;97707.47;;;8.55;95.22
141;BME280;65;48.778;9.160;2023-04-01T23:24:21;97714.44;;;8.56;94.00
141;BME280;65;48.778;9.160;2023-04-01T23:27:17;97715.28;;;8.56;93.90
141;BME280;65;48.778;9.160;2023-04-01T23:33:30;97726.75;;;8.55;94.38
141;BME280;65;48.778;9.160;2023-04-01T23:36:16;97721.13;;;8.47;94.86
141;BME280;65;48.778;9.160;2023-04-01T23:39:06;97725.19;;;8.39;95.68
141;BME280;65;48.778;9.160;2023-04-01T23:42:04;97740.50;;;8.46;93.97
141;BME280;65;48.778;9.160;2023-04-01T23:44:53;97733.53;;;8.45;93.58
141;BME280;65;48.778;9.160;2023-04-01T23:47:40;97740.41;;;8.48;94.09
141;BME280;65;48.778;9.160;2023-04-01T23:50:27;97745.00;;;8.44;94.45
141;BME280;65;48.778;9.160;2023-04-01T23:53:19;97741.63;;;8.42;94.91
141;BME280;65;48.778;9.160;2023-04-01T23:56:06;97736.38;;;8.42;93.77
141;BME280;65;48.778;9.160;2023-04-01T23:58:52;97735.31;;;8.31;95.59
